Time;durP1;ratioP1;P1;durP2;ratioP2;P2;SDS_P1;SDS_P2;PMS_P1;PMS_P2;Temp;Humidity;BMP_temperature;BMP_pressure;BME280_temperature;BME280_humidity;BME280_pressure;Samples;Min_cycle;Max_cycle;Signal;HPM_P1;HPM_P2
2022/02/02 00:00:34;;;;;;;18.30;5.33;;;12.00;99.90;;;11.90;59.14;100977.78;4950607;28;97877;-61
2022/02/02 00:03:12;;;;;;;32.77;6.87;;;12.20;99.90;;;11.80;59.79;100965.81;4923759;28;99840;-61
2022/02/02 00:06:11;;;;;;;33.97;7.00;;;12.10;99.90;;;11.83;59.29;100978.91;4950355;28;98156;-61
2022/02/02 00:08:38;;;;;;;20.63;4.87;;;12.10;99.90;;;11.65;59.50;100992.75;4934652;28;97035;-60
2022/02/02 00:19:00;;;;;;;26.37;6.60;;;11.80;99.90;;;11.34;60.69;100993.78;4950884;28;97798;-60
2022/02/02 00:21:42;;;;;;;22.80;5.83;;;11.70;99.90;;;11.37;59.73;100983.09;4951471;28;98866;-61
2022/02/02 00:24:59;;;;;;;22.53;6.40;;;11.80;99.90;;;11.14;61.00;101009.41;4939988;28;97491;-61
2022/02/02 00:27:01;;;;;;;22.60;5.70;;;11.60;99.90;;;11.37;60.13;101009.53;4940674;28;102434;-60
2022/02/02 00:29:33;;;;;;;24.10;5.47;;;11.70;99.90;;;11.20;60.98;101009.22;4934307;28;97421;-60
2022/02/02 00:32:09;;;;;;;23.67;5.73;;;11.60;99.90;;;11.16;60.74;101034.88;4955347;28;97615;-60
2022/02/02 00:34:35;;;;;;;26.90;5.63;;;11.60;99.90;;;11.18;60.79;101029.53;4952576;28;98920;-61
2022/02/02 00:37:01;;;;;;;22.43;5.57;;;11.60;99.90;;;11.47;59.74;101026.81;4936185;28;99579;-61
2022/02/02 00:39:29;;;;;;;28.70;6.17;;;11.80;99.90;;;11.60;59.07;101028.13;4950641;28;96965;-61
2022/02/02 00:41:56;;;;;;;30.77;5.87;;;11.80;99.90;;;11.49;59.13;101024.09;4953505;28;99332;-61
2022/02/02 00:44:26;;;;;;;26.57;5.70;;;11.80;99.90;;;11.42;59.22;101048.97;4952681;28;98724;-61
2022/02/02 00:46:54;;;;;;;22.47;5.83;;;11.70;99.90;;;11.45;59.18;101044.47;4938273;28;98438;-60
2022/02/02 00:49:20;;;;;;;24.23;6.13;;;11.80;99.90;;;11.72;58.66;101039.19;4951870;28;98430;-67
2022/02/02 00:51:48;;;;;;;24.50;5.87;;;11.90;99.90;;;11.59;58.38;101042.25;4936085;28;97806;-60
2022/02/02 00:54:20;;;;;;;28.07;6.43;;;12.00;99.90;;;11.93;57.86;101045.53;4932641;28;97396;-60
2022/02/02 00:56:47;;;;;;;24.70;5.53;;;12.10;99.90;;;11.55;58.43;101037.97;4949749;28;102577;-59
2022/02/02 00:59:14;;;;;;;23.83;6.43;;;12.00;99.90;;;12.00;57.80;101041.75;4936000;28;101052;-61
2022/02/02 01:01:40;;;;;;;29.87;6.47;;;12.20;99.90;;;12.14;57.06;101045.63;4951654;28;99357;-61
2022/02/02 01:04:14;;;;;;;30.43;5.87;;;12.40;99.90;;;12.13;56.89;101053.63;4947413;28;99581;-61
2022/02/02 01:06:48;;;;;;;29.10;6.93;;;12.30;99.90;;;12.17;56.85;101056.13;4934589;28;99155;-61
2022/02/02 01:17:23;;;;;;;31.20;6.10;;;12.60;99.90;;;12.42;56.42;101045.47;4951013;28;101049;-61
2022/02/02 01:19:57;;;;;;;27.80;6.07;;;12.50;99.90;;;12.31;56.79;101052.13;4936234;28;97128;-61
2022/02/02 01:27:46;;;;;;;28.83;6.27;;;12.50;99.90;;;12.41;56.39;101059.63;4970959;28;97017;-61
2022/02/02 01:27:54;;;;;;;25.03;6.87;;;12.70;99.90;;;12.37;56.45;101051.88;4960919;28;100591;-61
2022/02/02 01:30:22;;;;;;;26.27;6.37;;;12.60;99.90;;;12.45;55.47;101049.81;4953642;28;97017;-65
2022/02/02 01:32:48;;;;;;;26.83;6.27;;;12.60;99.90;;;12.14;57.01;101057.97;4950629;28;97995;-61
2022/02/02 01:35:16;;;;;;;29.27;6.30;;;12.40;99.90;;;12.15;56.90;101065.00;4971078;28;98137;-60
2022/02/02 01:37:47;;;;;;;31.27;6.97;;;12.40;99.90;;;12.38;56.44;101058.88;4972240;28;97262;-60
2022/02/02 01:40:22;;;;;;;25.07;6.50;;;12.50;99.90;;;12.34;56.47;101052.00;4954966;28;97530;-60
2022/02/02 01:42:54;;;;;;;27.47;6.83;;;12.50;99.90;;;12.56;55.80;101058.19;4931432;28;97671;-61
2022/02/02 01:45:31;;;;;;;26.80;6.57;;;12.70;99.90;;;12.36;56.30;101064.25;4974358;28;98985;-67
2022/02/02 01:51:16;;;;;;;28.10;6.27;;;12.50;99.90;;;11.96;57.49;101072.72;4955284;28;98497;-61
2022/02/02 01:56:15;;;;;;;31.03;7.07;;;12.00;99.90;;;11.66;58.57;101069.31;4971051;28;97370;-61
2022/02/02 02:01:09;;;;;;;25.30;6.90;;;12.00;99.90;;;11.71;58.24;101062.09;4956609;28;97152;-61
2022/02/02 02:03:36;;;;;;;26.43;6.00;;;12.00;99.90;;;11.78;58.23;101054.81;4967829;28;97352;-61
2022/02/02 02:06:03;;;;;;;23.23;6.23;;;12.00;99.90;;;11.89;58.07;101065.94;4967092;28;100311;-60
2022/02/02 02:08:29;;;;;;;32.50;7.10;;;12.10;99.90;;;11.90;58.07;101068.53;4953949;28;98180;-61
2022/02/02 02:10:54;;;;;;;32.93;7.90;;;12.20;99.90;;;11.95;57.18;101076.28;4958487;28;97046;-61
2022/02/02 02:16:16;;;;;;;32.53;6.80;;;12.20;99.90;;;11.63;58.66;101082.63;4884943;28;100247;-60
2022/02/02 02:18:41;;;;;;;28.77;5.67;;;12.10;99.90;;;11.15;59.71;101072.75;4954238;28;97148;-60
2022/02/02 02:21:15;;;;;;;25.47;5.80;;;11.70;99.90;;;11.30;59.20;101060.84;4957471;28;97131;-60
2022/02/02 02:23:41;;;;;;;21.63;5.43;;;11.70;99.90;;;11.10;60.44;101073.78;4943641;28;98405;-60
2022/02/02 02:26:09;;;;;;;30.53;5.90;;;11.60;99.90;;;10.95;60.63;101070.72;4957609;28;97323;-60
2022/02/02 02:31:04;;;;;;;24.87;6.40;;;11.50;99.90;;;11.21;59.71;101079.59;4974726;28;97741;-61
2022/02/02 02:33:50;;;;;;;32.03;6.77;;;11.60;99.90;;;11.13;59.87;101100.94;4956226;28;97595;-60
2022/02/02 02:58:05;;;;;;;25.57;6.43;;;11.30;99.90;;;10.89;60.75;101094.66;4955598;28;101604;-60
2022/02/02 03:30:43;;;;;;;25.20;5.90;;;11.50;99.90;;;11.11;59.25;101088.72;4974426;28;97394;-60
2022/02/02 03:52:43;;;;;;;29.33;6.83;;;11.70;99.90;;;11.53;57.65;101121.69;4976136;28;98963;-61
2022/02/02 04:00:18;;;;;;;33.43;6.87;;;11.80;99.90;;;11.60;57.69;101125.03;4974745;28;97267;-60
2022/02/02 04:05:41;;;;;;;28.00;6.57;;;11.70;99.90;;;11.16;58.83;101115.84;4974234;28;97079;-67
2022/02/02 04:08:20;;;;;;;28.70;6.53;;;11.50;99.90;;;11.35;58.28;101122.28;4968934;28;96714;-61
2022/02/02 04:10:46;;;;;;;27.67;7.20;;;11.60;99.90;;;11.35;58.54;101129.34;4971868;28;97011;-61
2022/02/02 04:56:55;;;;;;;28.80;7.07;;;11.60;99.90;;;11.16;57.72;101160.75;4977487;28;98414;-61
2022/02/02 05:05:13;;;;;;;33.03;7.27;;;11.30;99.90;;;11.32;57.34;101162.00;4976969;28;97141;-61
2022/02/02 05:07:39;;;;;;;32.83;6.93;;;11.50;99.90;;;11.49;56.96;101151.78;4977284;28;97259;-61
2022/02/02 05:26:07;;;;;;;27.93;6.53;;;11.70;99.90;;;11.21;57.61;101174.66;4974949;28;97623;-61
2022/02/02 05:44:23;;;;;;;31.63;7.30;;;11.30;99.90;;;11.03;58.63;101190.16;4960611;28;96969;-60
2022/02/02 05:50:05;;;;;;;30.97;6.67;;;11.10;99.90;;;11.18;58.58;101198.53;4953023;28;97499;-61
2022/02/02 05:52:31;;;;;;;30.70;6.63;;;11.30;99.90;;;11.13;58.10;101200.41;4967587;28;101026;-61
2022/02/02 05:54:57;;;;;;;34.47;7.73;;;11.40;99.90;;;11.10;58.27;101200.50;4976096;28;97792;-61
2022/02/02 05:57:24;;;;;;;29.93;6.90;;;11.30;99.90;;;11.06;58.54;101210.31;4967720;28;99534;-61
2022/02/02 05:59:50;;;;;;;26.07;7.07;;;11.30;99.90;;;10.94;59.08;101216.78;4944507;28;98212;-61
2022/02/02 06:02:20;;;;;;;31.27;7.40;;;11.20;99.90;;;11.14;58.60;101207.44;4960729;28;100912;-60
2022/02/02 06:04:47;;;;;;;30.67;7.03;;;11.30;99.90;;;11.14;58.44;101202.16;4969481;28;96798;-60
2022/02/02 06:07:15;;;;;;;27.83;6.60;;;11.30;99.90;;;10.82;59.10;101206.56;4960329;28;111827;-61
2022/02/02 06:09:45;;;;;;;25.47;6.53;;;11.20;99.90;;;10.98;58.96;101228.13;4955177;28;98557;-61
2022/02/02 06:12:24;;;;;;;28.43;6.97;;;11.20;99.90;;;10.88;59.14;101222.25;4968956;28;98333;-61
2022/02/02 06:14:51;;;;;;;32.10;7.77;;;11.20;99.90;;;10.89;59.08;101218.72;4958051;28;97525;-60
2022/02/02 06:17:18;;;;;;;32.97;6.90;;;11.20;99.90;;;10.81;59.41;101220.69;4951273;28;99619;-60
2022/02/02 06:19:44;;;;;;;28.53;7.00;;;11.10;99.90;;;10.83;59.48;101218.84;4962111;28;100249;-61
2022/02/02 06:22:20;;;;;;;30.33;7.30;;;11.10;99.90;;;11.13;58.74;101237.38;4973978;28;122751;-61
2022/02/02 06:24:53;;;;;;;28.90;6.70;;;11.30;99.90;;;11.17;58.49;101233.78;4957384;28;96933;-60
2022/02/02 06:27:24;;;;;;;36.90;8.07;;;11.40;99.90;;;11.14;58.42;101228.53;4973400;28;97546;-60
2022/02/02 06:30:07;;;;;;;28.70;6.73;;;11.40;99.90;;;10.97;59.01;101227.25;4964289;28;102506;-61
2022/02/02 06:32:50;;;;;;;25.50;6.10;;;11.20;99.90;;;11.06;59.13;101236.72;4950768;28;97402;-61
2022/02/02 06:35:20;;;;;;;32.90;7.27;;;11.30;99.90;;;10.80;59.69;101244.47;4952566;28;97132;-60
2022/02/02 06:37:48;;;;;;;28.83;7.53;;;11.20;99.90;;;10.70;60.03;101249.13;4934312;28;96989;-61
2022/02/02 06:40:17;;;;;;;32.57;7.10;;;11.00;99.90;;;10.92;59.55;101245.00;4971710;28;97657;-61
2022/02/02 06:42:43;;;;;;;29.90;7.50;;;11.20;99.90;;;10.92;59.47;101245.00;4940273;28;98101;-60
2022/02/02 06:45:11;;;;;;;18.40;6.07;;;11.20;99.90;;;10.71;59.96;101245.63;4949645;28;97150;-60
2022/02/02 06:47:39;;;;;;;30.27;6.73;;;11.10;99.90;;;10.78;60.37;101241.88;4949646;28;103533;-61
2022/02/02 06:50:15;;;;;;;28.47;6.73;;;11.10;99.90;;;10.63;60.49;101252.84;4971910;28;98687;-61
2022/02/02 06:52:51;;;;;;;36.50;8.80;;;11.10;99.90;;;10.56;60.79;101252.16;4963924;28;96873;-61
2022/02/02 06:55:33;;;;;;;30.67;6.90;;;11.00;99.90;;;10.57;60.82;101274.13;4960167;28;102893;-61
2022/02/02 06:58:08;;;;;;;35.17;8.07;;;10.90;99.90;;;10.73;60.88;101275.47;4964166;28;97076;-60
2022/02/02 07:00:51;;;;;;;31.97;7.00;;;10.90;99.90;;;10.89;59.97;101282.06;4970083;28;97855;-61
2022/02/02 07:11:43;;;;;;;29.30;7.50;;;11.20;99.90;;;10.96;59.77;101288.88;4953126;28;98138;-61
2022/02/02 07:14:19;;;;;;;27.60;6.80;;;11.20;99.90;;;10.95;59.72;101295.06;4946372;28;102617;-60
2022/02/02 07:20:10;;;;;;;35.20;7.97;;;11.30;99.90;;;10.71;60.76;101287.81;4911848;28;98914;-59
2022/02/02 07:25:27;;;;;;;31.87;7.10;;;11.00;99.90;;;10.69;60.79;101300.16;4899951;28;98189;-61
2022/02/02 07:28:04;;;;;;;26.10;6.47;;;11.00;99.90;;;10.81;60.45;101309.53;4917863;28;97645;-60
2022/02/02 07:30:46;;;;;;;23.73;6.20;;;11.00;99.90;;;10.69;60.84;101311.59;4902606;28;99499;-61
2022/02/02 07:33:19;;;;;;;36.17;7.17;;;10.90;99.90;;;10.77;60.78;101307.91;4914663;28;97766;-61
2022/02/02 07:36:04;;;;;;;32.50;7.87;;;11.00;99.90;;;10.76;60.53;101322.88;4897094;28;97873;-59
2022/02/02 07:38:54;;;;;;;29.80;7.27;;;11.00;99.90;;;10.58;61.09;101333.91;4899504;28;98087;-58
2022/02/02 07:41:31;;;;;;;28.63;6.63;;;10.90;99.90;;;10.56;60.92;101335.69;4900561;28;97883;-61
2022/02/02 07:44:07;;;;;;;32.80;6.73;;;10.90;99.90;;;10.58;60.95;101341.81;4908274;28;100476;-60
2022/02/02 07:46:52;;;;;;;31.27;6.60;;;10.90;99.90;;;10.48;61.34;101332.38;4918383;28;98371;-62
2022/02/02 07:49:31;;;;;;;25.40;5.67;;;10.90;99.90;;;10.65;60.62;101336.31;4924415;28;97449;-61
2022/02/02 07:51:58;;;;;;;29.57;7.00;;;11.00;99.90;;;10.72;60.25;101342.34;4918340;28;97235;-60
2022/02/02 07:54:30;;;;;;;33.90;8.37;;;11.00;99.90;;;10.89;59.80;101342.75;4899287;28;98121;-59
2022/02/02 07:57:12;;;;;;;28.83;7.40;;;11.20;99.90;;;10.83;59.98;101345.53;4904822;28;98685;-58
2022/02/02 08:02:34;;;;;;;30.27;6.27;;;11.00;99.90;;;10.91;59.76;101356.78;4921487;28;99076;-60
2022/02/02 08:05:01;;;;;;;29.07;7.03;;;11.10;99.90;;;10.80;60.05;101363.25;4904194;28;103063;-61
2022/02/02 08:07:33;;;;;;;29.80;6.93;;;11.00;99.90;;;10.76;59.82;101370.38;4897368;28;97382;-61
2022/02/02 08:10:09;;;;;;;29.50;7.50;;;11.00;99.90;;;10.85;59.38;101372.78;4916471;28;97987;-61
2022/02/02 08:12:45;;;;;;;29.47;6.23;;;11.10;99.90;;;11.09;58.72;101373.03;4885447;28;98088;-61
2022/02/02 08:15:14;;;;;;;28.83;7.10;;;11.20;99.90;;;11.13;58.61;101379.97;4920472;28;97726;-60
2022/02/02 08:17:40;;;;;;;23.90;6.50;;;11.20;99.90;;;11.08;58.14;101379.22;4918629;28;98563;-61
2022/02/02 08:21:12;;;;;;;27.73;6.70;;;11.30;99.90;;;11.30;58.12;101380.41;4922967;28;97822;-61
2022/02/02 08:23:38;;;;;;;36.30;6.97;;;11.30;99.90;;;11.49;57.68;101381.63;4908455;28;98498;-59
2022/02/02 08:26:12;;;;;;;27.47;7.07;;;11.50;99.90;;;11.58;56.49;101389.31;4923201;28;97705;-60
2022/02/02 08:28:38;;;;;;;37.20;7.20;;;11.70;99.90;;;11.79;56.08;101386.97;4885718;28;97064;-60
2022/02/02 08:31:05;;;;;;;31.17;7.10;;;11.90;99.90;;;11.96;55.55;101395.28;4917946;28;98381;-60
2022/02/02 08:33:37;;;;;;;31.40;6.97;;;12.00;99.90;;;11.95;56.00;101393.53;4914932;28;99004;-61
2022/02/02 08:36:05;;;;;;;24.33;6.77;;;12.00;99.90;;;12.03;55.88;101386.25;4919300;28;97598;-61
2022/02/02 08:38:58;;;;;;;22.40;6.07;;;12.00;99.90;;;12.01;55.98;101392.50;4897940;28;97536;-59
2022/02/02 08:41:35;;;;;;;25.03;6.30;;;12.10;99.90;;;12.12;55.65;101396.53;4908830;28;99244;-60
2022/02/02 08:44:07;;;;;;;35.70;7.10;;;12.20;99.90;;;11.96;55.29;101408.50;4894891;28;97953;-60
2022/02/02 08:46:36;;;;;;;29.73;7.00;;;12.10;99.90;;;11.60;56.53;101420.97;4908360;28;97681;-60
2022/02/02 08:49:08;;;;;;;31.27;7.33;;;11.90;99.90;;;11.87;55.36;101416.72;4848422;28;98088;-61
2022/02/02 08:51:39;;;;;;;22.20;5.97;;;12.00;99.90;;;11.93;55.62;101419.16;4909679;28;98434;-60
2022/02/02 08:59:21;;;;;;;30.37;7.17;;;12.20;99.90;;;12.12;55.20;101433.56;4895836;28;98001;-60
2022/02/02 09:01:51;;;;;;;27.43;7.10;;;12.20;99.90;;;12.21;54.91;101435.09;4869251;28;98116;-60
2022/02/02 09:07:04;;;;;;;29.47;7.07;;;12.40;99.90;;;11.77;56.05;101454.84;4903955;28;103414;-61
2022/02/02 09:31:32;;;;;;;30.57;7.03;;;11.80;99.90;;;11.83;56.27;101462.63;4908267;28;98874;-60
2022/02/02 09:34:04;;;;;;;26.60;6.20;;;11.90;99.90;;;11.79;56.00;101469.78;4902552;28;99300;-62
2022/02/02 09:36:32;;;;;;;29.03;6.90;;;12.00;99.90;;;11.74;56.19;101462.88;4919102;28;98012;-61
2022/02/02 09:41:51;;;;;;;28.67;5.23;;;11.90;99.90;;;11.83;56.18;101452.06;4919157;28;98100;-59
2022/02/02 09:44:22;;;;;;;24.53;5.80;;;12.00;99.90;;;11.85;56.13;101466.97;4911062;28;98738;-61
2022/02/02 09:49:26;;;;;;;30.07;6.60;;;12.10;99.90;;;11.68;56.25;101474.47;4899908;28;97089;-61
2022/02/02 09:51:59;;;;;;;25.67;6.00;;;11.80;99.90;;;11.70;56.18;101471.78;4896155;28;101497;-59
2022/02/02 10:05:25;;;;;;;31.67;6.90;;;12.10;99.90;;;12.04;55.58;101483.19;4921984;28;97346;-60
2022/02/02 10:08:58;;;;;;;28.30;6.97;;;12.10;99.90;;;12.20;54.77;101495.06;4921515;28;97412;-62
2022/02/02 10:14:19;;;;;;;29.17;7.67;;;12.20;99.90;;;11.78;57.11;101483.88;4909423;28;101044;-62
2022/02/02 10:16:49;;;;;;;31.53;7.17;;;12.00;99.90;;;12.07;56.21;101498.97;4899362;28;97605;-61
2022/02/02 10:19:22;;;;;;;41.03;7.83;;;12.30;99.90;;;12.21;55.83;101496.78;4923524;28;97023;-61
2022/02/02 10:21:48;;;;;;;26.47;8.00;;;12.40;99.90;;;12.26;55.47;101503.72;4918408;28;105015;-62
2022/02/02 10:24:21;;;;;;;28.87;6.70;;;12.40;99.90;;;12.53;54.30;101508.19;4922218;28;97183;-61
2022/02/02 10:26:50;;;;;;;30.93;8.47;;;12.60;99.90;;;12.58;54.90;101511.56;4920656;28;97350;-60
2022/02/02 10:29:24;;;;;;;35.17;7.13;;;12.70;99.90;;;12.64;54.71;101508.75;4919823;28;97579;-60
2022/02/02 10:31:51;;;;;;;33.43;7.63;;;12.60;99.90;;;12.71;54.21;101510.25;4856776;28;103022;-61
2022/02/02 10:34:24;;;;;;;32.00;8.30;;;12.80;99.90;;;12.65;54.77;101507.81;4923103;28;97788;-61
2022/02/02 10:37:21;;;;;;;29.37;7.50;;;12.70;99.90;;;12.30;55.93;101522.13;4899154;28;98540;-61
2022/02/02 10:39:49;;;;;;;32.53;8.10;;;12.40;99.90;;;12.11;56.44;101516.47;4882071;28;98805;-61
2022/02/02 10:42:42;;;;;;;28.50;7.60;;;12.20;99.90;;;12.00;57.15;101522.97;4923254;28;96925;-61
2022/02/02 10:45:33;;;;;;;33.47;8.07;;;12.10;99.90;;;12.00;57.51;101521.19;4894538;28;99780;-62
2022/02/02 10:48:14;;;;;;;33.23;7.87;;;12.10;99.90;;;12.13;57.28;101519.06;4903717;28;98242;-61
2022/02/02 10:50:50;;;;;;;29.70;7.47;;;12.20;99.90;;;12.20;56.28;101526.78;4920637;28;97639;-60
2022/02/02 10:56:32;;;;;;;29.17;8.03;;;12.10;99.90;;;12.19;56.60;101524.19;4922244;28;100035;-61
2022/02/02 11:06:45;;;;;;;29.93;7.33;;;12.00;99.90;;;11.97;57.54;101529.22;4921774;28;96939;-60
2022/02/02 11:09:19;;;;;;;34.97;8.17;;;12.10;99.90;;;11.83;58.01;101532.22;4904841;28;98076;-61
2022/02/02 11:11:49;;;;;;;32.80;7.87;;;12.00;99.90;;;12.18;56.38;101533.03;4906547;28;97156;-60
2022/02/02 11:14:44;;;;;;;31.53;7.90;;;12.20;99.90;;;12.24;56.29;101530.22;4922405;28;97470;-61
2022/02/02 11:17:29;;;;;;;33.30;8.30;;;12.20;99.90;;;12.22;56.75;101542.63;4917512;28;101083;-59
2022/02/02 11:20:06;;;;;;;31.70;7.53;;;12.40;99.90;;;11.97;57.39;101545.06;4902404;28;98502;-60
2022/02/02 11:22:57;;;;;;;33.30;8.77;;;12.30;99.90;;;12.14;56.88;101526.09;4913939;28;100205;-61
2022/02/02 11:25:35;;;;;;;33.50;7.77;;;12.40;99.90;;;12.04;57.25;101530.78;4894557;28;98717;-62
2022/02/02 11:28:08;;;;;;;29.73;8.17;;;12.30;99.90;;;12.15;56.91;101531.38;4894740;28;99828;-61
2022/02/02 11:30:33;;;;;;;37.93;8.10;;;12.40;99.90;;;12.05;57.13;101537.81;4860597;28;99233;-61
2022/02/02 11:33:15;;;;;;;33.93;9.07;;;12.30;99.90;;;11.99;57.55;101537.09;4867651;28;98168;-60
2022/02/02 11:35:57;;;;;;;30.90;8.47;;;12.10;99.90;;;12.32;56.22;101540.59;4878174;28;97606;-61
2022/02/02 11:38:39;;;;;;;39.77;9.53;;;12.40;99.90;;;12.37;56.24;101544.81;4893643;28;98070;-60
2022/02/02 11:41:13;;;;;;;28.27;7.97;;;12.50;99.90;;;12.64;55.20;101548.44;4885945;28;98324;-61
2022/02/02 11:44:00;;;;;;;34.13;8.60;;;12.80;99.90;;;12.85;54.35;101546.03;4917369;28;98472;-61
2022/02/02 11:47:05;;;;;;;36.43;8.57;;;13.00;99.90;;;12.88;54.38;101535.38;4906295;28;98166;-61
2022/02/02 11:52:50;;;;;;;30.97;7.60;;;12.90;99.90;;;12.62;53.14;101544.97;4893384;28;101121;-62
2022/02/02 11:55:19;;;;;;;31.30;7.80;;;12.70;99.90;;;12.11;54.01;101558.78;4906602;28;96989;-59
2022/02/02 11:58:20;;;;;;;29.50;7.20;;;12.40;99.90;;;12.19;54.36;101546.22;4899801;28;98038;-60
2022/02/02 12:01:10;;;;;;;30.30;7.03;;;12.40;99.90;;;12.41;54.46;101548.25;4886192;28;98933;-60
2022/02/02 12:04:05;;;;;;;30.40;7.80;;;12.50;99.90;;;12.47;54.31;101550.72;4896558;28;98396;-62
2022/02/02 12:06:57;;;;;;;26.27;6.77;;;12.50;99.90;;;12.51;54.24;101552.38;4828491;28;98727;-61
2022/02/02 12:09:52;;;;;;;29.40;7.50;;;12.70;99.90;;;12.72;53.90;101557.00;4900093;28;97706;-61
2022/02/02 12:27:51;;;;;;;31.30;7.53;;;13.20;99.90;;;13.11;52.67;101564.63;4903655;28;98110;-60
2022/02/02 12:46:49;;;;;;;25.73;6.27;;;13.10;99.90;;;12.97;51.85;101543.00;4915182;28;98984;-60
2022/02/02 12:49:42;;;;;;;29.10;6.63;;;13.20;99.90;;;13.03;52.17;101535.75;4913846;28;97579;-59
2022/02/02 12:57:33;;;;;;;25.43;6.37;;;13.20;99.90;;;12.76;52.17;101553.38;4917580;28;97951;-60
2022/02/02 13:00:11;;;;;;;21.73;5.80;;;13.10;99.90;;;12.89;51.94;101548.56;4913829;28;99209;-61
2022/02/02 13:02:45;;;;;;;26.20;5.83;;;13.10;99.90;;;12.97;50.88;101554.47;4884879;28;97665;-61
2022/02/02 13:05:11;;;;;;;21.17;5.50;;;13.10;99.90;;;12.93;51.13;101554.63;4899706;28;98387;-61
2022/02/02 13:07:40;;;;;;;23.67;5.77;;;13.10;99.90;;;12.67;50.57;101558.94;4905016;28;98666;-61
2022/02/02 13:10:12;;;;;;;23.00;5.77;;;12.90;99.90;;;12.66;50.88;101546.63;4884939;28;97918;-61
2022/02/02 13:15:32;;;;;;;29.23;6.17;;;12.90;99.90;;;12.54;52.04;101546.09;4923765;28;98657;-60
2022/02/02 13:18:31;;;;;;;25.57;6.27;;;12.80;99.90;;;12.58;51.84;101548.59;4921229;28;100947;-60
2022/02/02 13:29:38;;;;;;;25.63;6.50;;;13.10;99.90;;;13.16;51.53;101548.59;4921609;28;99804;-59
2022/02/02 13:32:11;;;;;;;24.63;6.33;;;13.30;99.90;;;13.37;51.32;101546.16;4919616;28;97789;-60
2022/02/02 13:37:59;;;;;;;19.13;4.90;;;13.40;99.90;;;13.21;51.00;101544.06;4914731;28;99407;-60
2022/02/02 13:46:18;;;;;;;19.17;5.87;;;13.40;99.90;;;13.04;50.43;101557.81;4880259;28;98632;-62
2022/02/02 13:49:11;;;;;;;26.33;5.77;;;13.30;99.90;;;12.88;50.32;101556.56;4918869;28;99792;-60
2022/02/02 13:51:53;;;;;;;23.70;5.90;;;13.20;99.60;;;13.18;51.01;101550.31;4920059;28;97669;-61
2022/02/02 13:54:49;;;;;;;19.27;6.50;;;13.40;99.90;;;13.19;50.40;101560.00;4914270;28;97001;-61
2022/02/02 14:00:24;;;;;;;21.57;5.87;;;13.30;99.70;;;12.77;50.81;101571.00;4898868;28;101164;-61
2022/02/02 14:05:56;;;;;;;24.90;6.00;;;13.00;99.80;;;12.66;51.99;101574.88;4911021;28;98344;-61
2022/02/02 14:33:27;;;;;;;23.07;5.97;;;13.30;99.80;;;13.11;49.48;101599.06;4893551;28;97946;-61
2022/02/02 14:35:57;;;;;;;15.60;5.20;;;13.40;99.20;;;13.18;49.82;101598.00;4899171;28;97495;-60
2022/02/02 14:38:32;;;;;;;21.33;5.67;;;13.40;99.40;;;13.44;50.56;101598.94;4896335;28;97109;-58
2022/02/02 14:41:12;;;;;;;16.73;4.40;;;13.60;99.90;;;13.43;49.79;101607.81;4906714;28;97631;-59
2022/02/02 14:43:46;;;;;;;20.30;4.83;;;13.60;99.20;;;13.38;48.46;101616.78;4880820;28;98511;-60
2022/02/02 14:46:15;;;;;;;23.13;5.67;;;13.60;98.10;;;13.34;49.72;101617.81;4895713;28;97664;-59
2022/02/02 14:48:55;;;;;;;17.40;4.77;;;13.50;99.10;;;13.57;50.04;101610.88;4862358;28;97508;-60
2022/02/02 14:51:39;;;;;;;17.03;4.33;;;13.70;99.60;;;13.65;48.95;101624.75;4857244;28;96856;-57
2022/02/02 14:54:48;;;;;;;13.87;4.00;;;13.80;98.30;;;13.59;48.33;101620.50;4898402;28;104030;-59
2022/02/02 15:32:01;;;;;;;16.17;4.00;;;13.80;97.40;;;13.55;48.24;101633.91;4897644;28;98001;-54
2022/02/02 15:34:35;;;;;;;17.07;3.77;;;13.60;98.40;;;13.49;48.25;101639.44;4895012;28;98662;-60
2022/02/02 15:39:34;;;;;;;19.13;4.43;;;13.50;98.00;;;13.28;47.12;101639.19;4883706;28;98528;-61
2022/02/02 15:42:22;;;;;;;16.47;4.00;;;13.40;97.50;;;13.48;48.93;101648.31;4900581;28;97860;-60
2022/02/02 15:58:15;;;;;;;19.07;4.30;;;13.80;98.60;;;13.94;48.48;101643.22;4914295;28;97185;-61
2022/02/02 16:01:35;;;;;;;17.13;4.60;;;14.00;97.90;;;13.99;47.27;101641.25;4911045;28;97729;-60
2022/02/02 16:06:14;;;;;;;18.67;4.70;;;14.10;98.30;;;14.09;48.48;101648.91;4917727;28;97359;-58
2022/02/02 16:08:42;;;;;;;13.13;5.20;;;14.10;98.40;;;14.20;48.01;101646.75;4918815;28;97689;-60
2022/02/02 16:13:51;;;;;;;19.27;5.57;;;14.30;98.20;;;14.23;47.41;101651.94;4916218;28;97323;-61
2022/02/02 16:18:53;;;;;;;17.87;4.40;;;14.20;97.40;;;14.14;47.50;101666.41;4914047;28;96939;-62
2022/02/02 16:37:39;;;;;;;17.83;7.23;;;13.90;99.10;;;13.88;49.12;101659.31;4912770;28;96943;-58
2022/02/02 16:40:09;;;;;;;20.07;7.03;;;13.90;99.00;;;13.98;48.99;101660.75;4920139;28;97189;-59
2022/02/02 16:43:07;;;;;;;23.27;7.23;;;14.00;98.80;;;14.07;48.79;101669.31;4916091;28;99338;-61
2022/02/02 16:45:35;;;;;;;11.43;4.40;;;14.00;98.90;;;14.13;48.63;101669.97;4913266;28;97764;-61
2022/02/02 16:48:01;;;;;;;15.10;4.93;;;14.10;98.40;;;14.12;48.68;101667.38;4914401;28;97445;-60
2022/02/02 16:50:36;;;;;;;11.17;4.30;;;14.10;98.50;;;14.13;48.81;101669.09;4912562;28;98573;-57
2022/02/02 16:53:09;;;;;;;13.23;4.40;;;14.00;98.90;;;14.09;48.65;101667.47;4918198;28;98867;-60
2022/02/02 17:31:02;;;;;;;7.40;2.80;;;13.00;99.90;;;13.67;50.60;101700.69;4900187;28;96946;-59
2022/02/02 17:33:37;;;;;;;7.30;2.80;;;13.10;99.90;;;13.69;50.15;101703.28;4898447;28;100111;-61
2022/02/02 17:36:18;;;;;;;7.23;2.77;;;13.10;99.90;;;13.68;50.54;101704.19;4916073;28;97883;-61
2022/02/02 17:41:21;;;;;;;13.27;4.90;;;13.20;99.90;;;13.74;50.30;101714.59;4917341;28;96945;-60
2022/02/02 17:44:15;;;;;;;7.87;3.70;;;13.20;99.90;;;13.77;50.00;101711.00;4913436;28;98006;-61
2022/02/02 18:16:33;;;;;;;13.87;4.93;;;13.10;99.90;;;13.66;50.54;101712.19;4911058;28;102093;-56
2022/02/02 18:18:53;;;;;;;10.20;4.47;;;13.10;99.90;;;13.66;50.45;101716.63;4901017;28;97331;-60
2022/02/02 18:21:21;;;;;;;6.73;3.67;;;13.10;99.90;;;13.70;50.30;101718.25;4903879;28;98960;-57
2022/02/02 18:26:23;;;;;;;9.10;3.60;;;13.10;99.90;;;13.69;50.64;101727.13;4931185;28;97416;-59
2022/02/02 18:57:50;;;;;;;9.63;4.97;;;12.90;99.90;;;13.55;50.88;101745.25;4892129;28;98422;-61
2022/02/02 19:56:51;;;;;;;13.53;7.23;;;13.10;99.90;;;13.68;51.07;101734.22;4893496;28;97234;-60
2022/02/02 20:02:17;;;;;;;12.20;5.67;;;13.20;99.90;;;13.74;51.07;101735.81;4889163;28;101467;-61
2022/02/02 20:05:03;;;;;;;12.77;6.87;;;13.20;99.90;;;13.78;50.83;101737.47;4891294;28;98340;-61
2022/02/02 20:10:27;;;;;;;9.93;4.77;;;13.30;99.90;;;13.85;50.64;101739.00;4898052;28;99685;-61
2022/02/02 20:12:51;;;;;;;9.57;5.43;;;13.40;99.90;;;13.86;50.71;101738.06;4904950;28;101502;-59
2022/02/02 20:15:17;;;;;;;12.63;6.40;;;13.40;99.90;;;13.87;50.95;101742.44;4911385;28;98432;-61
2022/02/02 20:17:45;;;;;;;14.37;7.83;;;13.40;99.90;;;13.86;51.00;101739.84;4896528;28;109644;-61
2022/02/02 20:20:23;;;;;;;6.87;4.13;;;13.30;99.90;;;13.87;50.62;101739.81;4900475;28;97805;-59
2022/02/02 20:22:50;;;;;;;18.13;10.00;;;13.30;99.90;;;13.87;50.85;101739.81;4896564;28;101654;-61
2022/02/02 20:25:17;;;;;;;14.83;7.80;;;13.40;99.90;;;13.88;50.76;101738.00;4898106;28;97788;-61
2022/02/02 20:27:52;;;;;;;13.90;6.43;;;13.40;99.90;;;13.85;50.77;101733.69;4896030;28;99468;-61
2022/02/02 20:30:19;;;;;;;12.40;7.13;;;13.30;99.90;;;13.83;50.87;101740.81;4896450;28;99325;-60
2022/02/02 20:32:45;;;;;;;15.63;8.20;;;13.30;99.90;;;13.80;51.06;101740.06;4893401;28;99271;-59
2022/02/02 20:35:11;;;;;;;14.60;7.33;;;13.20;99.90;;;13.79;51.17;101744.50;4897190;28;110727;-61